Time;durP1;ratioP1;P1;durP2;ratioP2;P2;SDS_P1;SDS_P2;PMS_P1;PMS_P2;Temp;Humidity;BMP_temperature;BMP_pressure;BME280_temperature;BME280_humidity;BME280_pressure;Samples;Min_cycle;Max_cycle;Signal;HPM_P1;HPM_P2
2023/06/02 00:01:33;;;;;;;29.07;27.23;;;;;;;;;;5045869;28;20041;-70
2023/06/02 00:03:59;;;;;;;29.07;27.27;;;;;;;;;;5045900;28;20080;-73
2023/06/02 00:06:26;;;;;;;28.63;26.83;;;;;;;;;;5046728;28;20433;-68
2023/06/02 00:08:52;;;;;;;25.77;24.20;;;;;;;;;;5046511;28;20686;-71
2023/06/02 00:11:19;;;;;;;29.87;27.97;;;;;;;;;;5044087;28;20279;-70
2023/06/02 00:13:44;;;;;;;28.50;26.70;;;;;;;;;;5026417;28;20279;-73
2023/06/02 00:16:12;;;;;;;31.20;29.17;;;;;;;;;;5044673;28;20282;-71
2023/06/02 00:18:38;;;;;;;29.97;28.13;;;;;;;;;;5043450;28;20080;-66
2023/06/02 00:21:05;;;;;;;32.33;30.33;;;;;;;;;;5042687;28;20374;-70
2023/06/02 00:23:30;;;;;;;30.93;28.93;;;;;;;;;;5044434;28;20037;-71
2023/06/02 00:25:59;;;;;;;34.97;32.57;;;;;;;;;;5043132;28;20710;-75
2023/06/02 00:28:25;;;;;;;31.67;29.40;;;;;;;;;;5043647;28;20606;-74
2023/06/02 00:30:51;;;;;;;31.77;29.47;;;;;;;;;;5044101;28;20279;-72
2023/06/02 00:33:17;;;;;;;26.47;24.87;;;;;;;;;;5044188;28;20028;-71
2023/06/02 00:35:43;;;;;;;29.43;27.47;;;;;;;;;;5043489;28;20718;-70
2023/06/02 00:38:08;;;;;;;26.63;25.03;;;;;;;;;;5043588;28;20021;-73
2023/06/02 00:40:34;;;;;;;25.97;24.43;;;;;;;;;;5024378;28;20059;-72
2023/06/02 00:43:00;;;;;;;28.10;26.33;;;;;;;;;;5025980;28;20037;-72
2023/06/02 00:45:26;;;;;;;28.07;26.33;;;;;;;;;;5042792;28;20275;-72
2023/06/02 00:47:51;;;;;;;29.73;27.80;;;;;;;;;;5044102;28;20048;-72
2023/06/02 00:50:17;;;;;;;27.83;26.07;;;;;;;;;;5040186;28;20381;-72
2023/06/02 00:52:45;;;;;;;28.70;26.87;;;;;;;;;;5043026;28;20479;-74
2023/06/02 00:55:10;;;;;;;26.30;24.63;;;;;;;;;;5043389;28;20291;-74
2023/06/02 00:57:40;;;;;;;28.83;27.03;;;;;;;;;;5059068;28;20283;-71
2023/06/02 01:00:07;;;;;;;29.33;27.57;;;;;;;;;;5043088;28;20170;-73
2023/06/02 01:02:32;;;;;;;31.47;29.40;;;;;;;;;;5043185;28;20704;-73
2023/06/02 01:05:00;;;;;;;27.13;25.47;;;;;;;;;;5042390;28;20309;-72
2023/06/02 01:07:27;;;;;;;28.57;26.70;;;;;;;;;;5043661;28;20052;-72
2023/06/02 01:09:58;;;;;;;27.43;25.67;;;;;;;;;;5043059;28;20757;-73
2023/06/02 01:12:24;;;;;;;26.83;25.03;;;;;;;;;;5043327;28;20287;-70
2023/06/02 01:14:49;;;;;;;31.13;29.17;;;;;;;;;;5024444;28;20318;-67
2023/06/02 01:17:15;;;;;;;26.60;24.93;;;;;;;;;;5043631;28;20051;-72
2023/06/02 01:19:41;;;;;;;32.27;29.87;;;;;;;;;;5007194;28;20041;-73
2023/06/02 01:22:08;;;;;;;26.63;24.93;;;;;;;;;;5043792;28;20028;-73
2023/06/02 01:24:38;;;;;;;29.83;27.87;;;;;;;;;;5043111;28;20045;-73
2023/06/02 01:27:08;;;;;;;28.40;26.60;;;;;;;;;;5022712;28;20821;-72
2023/06/02 01:29:35;;;;;;;30.80;28.83;;;;;;;;;;5024107;28;20280;-71
2023/06/02 01:32:07;;;;;;;31.73;29.73;;;;;;;;;;5020801;28;20283;-72
2023/06/02 01:34:37;;;;;;;31.37;29.20;;;;;;;;;;5041525;28;20896;-71
2023/06/02 01:37:03;;;;;;;28.37;26.67;;;;;;;;;;5014191;28;20283;-70
2023/06/02 01:39:29;;;;;;;30.40;28.40;;;;;;;;;;5023237;28;20295;-72
2023/06/02 01:41:56;;;;;;;27.80;26.00;;;;;;;;;;5040996;28;20286;-70
2023/06/02 01:44:22;;;;;;;27.37;25.67;;;;;;;;;;5014555;28;21202;-73
2023/06/02 01:46:48;;;;;;;28.50;26.80;;;;;;;;;;5038203;28;20296;-73
2023/06/02 01:49:15;;;;;;;30.93;28.93;;;;;;;;;;5040995;28;20314;-71
2023/06/02 01:51:41;;;;;;;30.93;28.97;;;;;;;;;;5022551;28;20330;-75
2023/06/02 01:54:07;;;;;;;28.60;26.80;;;;;;;;;;5042263;28;20369;-72
2023/06/02 01:56:33;;;;;;;26.97;25.33;;;;;;;;;;5040665;28;21089;-72
2023/06/02 01:58:58;;;;;;;28.50;26.80;;;;;;;;;;5022519;28;20048;-74
2023/06/02 02:01:27;;;;;;;27.67;25.83;;;;;;;;;;5024591;28;20033;-73
2023/06/02 02:03:53;;;;;;;26.70;25.00;;;;;;;;;;5042307;28;20045;-72
2023/06/02 02:06:24;;;;;;;25.97;24.43;;;;;;;;;;5041775;28;20318;-72
2023/06/02 02:08:49;;;;;;;24.63;23.10;;;;;;;;;;5043464;28;20075;-72
2023/06/02 02:11:15;;;;;;;35.67;33.00;;;;;;;;;;5042898;28;20280;-71
2023/06/02 02:13:40;;;;;;;30.20;28.20;;;;;;;;;;5041796;28;20060;-71
2023/06/02 02:16:06;;;;;;;28.03;26.20;;;;;;;;;;5024281;28;20036;-74
2023/06/02 02:18:32;;;;;;;24.90;23.47;;;;;;;;;;5042152;28;20032;-72
2023/06/02 02:20:57;;;;;;;26.97;25.27;;;;;;;;;;5014395;28;20028;-70
2023/06/02 02:23:22;;;;;;;24.53;22.93;;;;;;;;;;5041095;28;20067;-72
2023/06/02 02:25:48;;;;;;;26.97;25.27;;;;;;;;;;5039261;28;20040;-72
2023/06/02 02:28:14;;;;;;;28.33;26.53;;;;;;;;;;5006434;28;20041;-73
2023/06/02 02:30:40;;;;;;;26.73;25.00;;;;;;;;;;5030033;28;20856;-72
2023/06/02 02:33:06;;;;;;;23.83;22.30;;;;;;;;;;5022229;28;20441;-69
2023/06/02 02:35:31;;;;;;;28.40;26.43;;;;;;;;;;5022062;28;20527;-73
2023/06/02 02:37:58;;;;;;;28.37;26.47;;;;;;;;;;5041637;28;20140;-72
2023/06/02 02:40:26;;;;;;;26.47;24.73;;;;;;;;;;5023675;28;20348;-72
2023/06/02 02:42:51;;;;;;;31.47;28.93;;;;;;;;;;5041161;28;20761;-73
2023/06/02 02:45:17;;;;;;;32.27;29.70;;;;;;;;;;5041121;28;20025;-74
2023/06/02 02:47:42;;;;;;;30.43;28.17;;;;;;;;;;5041977;28;20123;-74
2023/06/02 02:50:08;;;;;;;26.97;25.27;;;;;;;;;;5041276;28;20601;-75
2023/06/02 02:52:35;;;;;;;26.77;25.17;;;;;;;;;;5020649;28;20033;-70
2023/06/02 02:55:02;;;;;;;24.63;23.17;;;;;;;;;;5057121;28;20306;-72
2023/06/02 02:57:28;;;;;;;28.77;26.97;;;;;;;;;;5041474;28;20296;-73
2023/06/02 02:59:55;;;;;;;25.00;23.30;;;;;;;;;;5023966;28;20052;-75
2023/06/02 03:02:21;;;;;;;26.87;25.17;;;;;;;;;;5023698;28;20287;-72
2023/06/02 03:04:46;;;;;;;25.57;23.97;;;;;;;;;;5023575;28;20337;-74
2023/06/02 03:07:12;;;;;;;27.20;25.53;;;;;;;;;;5024975;28;20079;-71
2023/06/02 03:09:39;;;;;;;27.20;25.37;;;;;;;;;;5024917;28;20179;-73
2023/06/02 03:12:05;;;;;;;25.60;24.03;;;;;;;;;;5042892;28;20450;-72
2023/06/02 03:14:30;;;;;;;31.33;29.20;;;;;;;;;;5041704;28;20052;-72
2023/06/02 03:17:00;;;;;;;29.60;27.57;;;;;;;;;;5023227;28;20083;-72
2023/06/02 03:19:26;;;;;;;29.43;27.37;;;;;;;;;;5022756;28;20288;-71
2023/06/02 03:21:52;;;;;;;29.27;27.00;;;;;;;;;;5061113;28;20044;-73
2023/06/02 03:24:19;;;;;;;31.73;29.80;;;;;;;;;;5026319;28;20279;-73
2023/06/02 03:26:48;;;;;;;30.93;28.97;;;;;;;;;;5044474;28;20432;-69
2023/06/02 03:29:15;;;;;;;30.07;28.37;;;;;;;;;;5028407;28;20370;-74
2023/06/02 03:31:43;;;;;;;36.03;33.90;;;;;;;;;;5027508;28;20638;-73
2023/06/02 03:34:09;;;;;;;26.03;24.40;;;;;;;;;;5026528;28;20867;-71
2023/06/02 03:36:39;;;;;;;29.83;27.90;;;;;;;;;;5025475;28;20291;-72
2023/06/02 03:39:07;;;;;;;29.43;27.33;;;;;;;;;;5017340;28;20283;-70
2023/06/02 03:41:33;;;;;;;24.00;22.50;;;;;;;;;;5023863;28;20298;-73
2023/06/02 03:44:01;;;;;;;27.63;25.93;;;;;;;;;;5042766;28;20825;-71
2023/06/02 03:46:27;;;;;;;29.67;27.83;;;;;;;;;;5043243;28;20690;-72
2023/06/02 03:48:52;;;;;;;27.53;25.87;;;;;;;;;;5045104;28;20325;-70
2023/06/02 03:51:18;;;;;;;31.10;28.80;;;;;;;;;;5045466;28;20044;-72
2023/06/02 03:53:45;;;;;;;26.77;25.07;;;;;;;;;;5032774;28;20283;-74
2023/06/02 03:56:11;;;;;;;27.83;26.13;;;;;;;;;;5026415;28;20295;-73
2023/06/02 03:58:40;;;;;;;27.43;25.77;;;;;;;;;;5044078;28;20278;-73
2023/06/02 04:01:05;;;;;;;30.50;28.33;;;;;;;;;;5044979;28;20353;-71
2023/06/02 04:03:41;;;;;;;29.87;28.00;;;;;;;;;;5042073;28;20271;-70
2023/06/02 04:06:09;;;;;;;28.63;26.90;;;;;;;;;;5041206;28;20633;-73
2023/06/02 04:08:35;;;;;;;27.63;25.83;;;;;;;;;;5023214;28;20337;-71
2023/06/02 04:11:01;;;;;;;28.00;26.30;;;;;;;;;;5012464;28;20283;-70
2023/06/02 04:13:29;;;;;;;29.13;27.23;;;;;;;;;;5022869;28;20322;-71
2023/06/02 04:15:56;;;;;;;25.77;24.17;;;;;;;;;;5007372;28;20304;-72
2023/06/02 04:18:21;;;;;;;31.57;29.63;;;;;;;;;;5040103;28;20296;-73
2023/06/02 04:20:47;;;;;;;28.70;27.00;;;;;;;;;;5024858;28;20412;-70
2023/06/02 04:23:13;;;;;;;29.43;27.47;;;;;;;;;;5030487;28;20115;-73
2023/06/02 04:25:39;;;;;;;26.97;25.37;;;;;;;;;;5040212;28;20095;-74
2023/06/02 04:28:05;;;;;;;29.47;27.57;;;;;;;;;;5021388;28;20284;-73
2023/06/02 04:30:31;;;;;;;27.20;25.60;;;;;;;;;;5040561;28;20059;-71
2023/06/02 04:32:57;;;;;;;26.40;24.90;;;;;;;;;;5023567;28;20288;-71
2023/06/02 04:35:23;;;;;;;26.87;25.37;;;;;;;;;;5024858;28;20110;-70
2023/06/02 04:37:48;;;;;;;27.13;25.53;;;;;;;;;;5024063;28;20856;-74
2023/06/02 04:40:15;;;;;;;31.80;29.73;;;;;;;;;;5025384;28;20049;-73
2023/06/02 04:42:42;;;;;;;28.30;26.60;;;;;;;;;;5024168;28;20282;-72
2023/06/02 04:45:11;;;;;;;30.47;28.67;;;;;;;;;;5021444;28;20307;-73
2023/06/02 04:47:37;;;;;;;31.70;29.67;;;;;;;;;;5012224;28;20295;-72
2023/06/02 04:50:03;;;;;;;29.77;28.10;;;;;;;;;;5023495;28;20287;-72
2023/06/02 04:52:29;;;;;;;34.00;31.80;;;;;;;;;;5021882;28;20667;-68
2023/06/02 04:54:55;;;;;;;29.10;27.43;;;;;;;;;;5022812;28;20408;-68
2023/06/02 04:57:21;;;;;;;34.60;32.40;;;;;;;;;;5019513;28;20160;-67
2023/06/02 04:59:47;;;;;;;43.67;40.67;;;;;;;;;;5007504;28;20324;-68
2023/06/02 05:02:13;;;;;;;28.23;26.63;;;;;;;;;;5011732;28;20722;-68
2023/06/02 05:04:39;;;;;;;29.23;27.73;;;;;;;;;;5013047;28;20135;-68
2023/06/02 05:07:06;;;;;;;29.83;28.23;;;;;;;;;;5027411;28;20284;-69
2023/06/02 05:09:32;;;;;;;30.83;29.10;;;;;;;;;;5010694;28;20140;-68
2023/06/02 05:11:59;;;;;;;30.63;28.83;;;;;;;;;;5020569;28;20777;-70
2023/06/02 05:14:25;;;;;;;32.80;30.90;;;;;;;;;;5034592;28;20136;-69
2023/06/02 05:16:51;;;;;;;40.80;38.10;;;;;;;;;;5017002;28;20379;-64
2023/06/02 05:19:16;;;;;;;33.93;32.00;;;;;;;;;;5016343;28;20037;-64
2023/06/02 05:21:41;;;;;;;37.97;35.47;;;;;;;;;;5017476;28;20179;-64
2023/06/02 05:24:07;;;;;;;34.40;32.30;;;;;;;;;;5015217;28;20088;-64
2023/06/02 05:26:33;;;;;;;36.47;34.27;;;;;;;;;;5018989;28;20488;-64
2023/06/02 05:28:59;;;;;;;31.53;29.77;;;;;;;;;;5015781;28;20041;-64
2023/06/02 05:31:24;;;;;;;33.30;31.47;;;;;;;;;;5018161;28;20140;-64
2023/06/02 05:33:51;;;;;;;33.20;31.30;;;;;;;;;;5015811;28;20111;-66
2023/06/02 05:36:17;;;;;;;31.27;29.50;;;;;;;;;;5017599;28;21197;-65
2023/06/02 05:38:43;;;;;;;30.30;28.60;;;;;;;;;;5018623;28;20068;-65
2023/06/02 05:41:09;;;;;;;31.17;29.43;;;;;;;;;;5033353;28;20033;-64
2023/06/02 05:43:35;;;;;;;29.63;28.00;;;;;;;;;;5018242;28;20037;-65
2023/06/02 05:46:00;;;;;;;31.73;30.03;;;;;;;;;;5015944;28;20287;-64
2023/06/02 05:48:26;;;;;;;33.40;31.60;;;;;;;;;;5018656;28;20361;-64
2023/06/02 05:50:53;;;;;;;34.73;32.73;;;;;;;;;;5019213;28;20484;-64
2023/06/02 05:53:20;;;;;;;32.07;30.33;;;;;;;;;;5001756;28;20814;-64
2023/06/02 05:55:46;;;;;;;33.03;31.17;;;;;;;;;;5019165;28;20045;-64
2023/06/02 05:58:12;;;;;;;31.30;29.50;;;;;;;;;;5025660;28;20033;-64
2023/06/02 06:00:38;;;;;;;38.30;36.23;;;;;;;;;;5017896;28;20516;-64
2023/06/02 06:03:04;;;;;;;36.57;34.57;;;;;;;;;;5017276;28;20048;-65
2023/06/02 06:05:33;;;;;;;33.90;32.07;;;;;;;;;;5017475;28;20068;-66
2023/06/02 06:08:00;;;;;;;32.87;31.07;;;;;;;;;;5038060;28;20052;-66
2023/06/02 06:10:26;;;;;;;36.10;34.10;;;;;;;;;;5004923;28;20040;-65
2023/06/02 06:12:52;;;;;;;34.87;32.97;;;;;;;;;;5023691;28;20115;-66
2023/06/02 06:15:18;;;;;;;34.60;32.67;;;;;;;;;;5040331;28;20025;-66
2023/06/02 06:17:46;;;;;;;35.50;33.63;;;;;;;;;;5037802;28;20546;-64
2023/06/02 06:20:12;;;;;;;32.87;31.10;;;;;;;;;;5037627;28;20058;-65
2023/06/02 06:22:38;;;;;;;33.77;32.03;;;;;;;;;;5022425;28;20040;-66
2023/06/02 06:25:03;;;;;;;34.67;32.77;;;;;;;;;;5040710;28;20045;-66
2023/06/02 06:27:29;;;;;;;32.20;30.40;;;;;;;;;;5041982;28;20170;-64
2023/06/02 06:29:54;;;;;;;32.67;30.93;;;;;;;;;;5040140;28;20033;-64
2023/06/02 06:32:20;;;;;;;32.60;30.77;;;;;;;;;;5005527;28;20603;-64
2023/06/02 06:34:46;;;;;;;30.70;29.00;;;;;;;;;;5021180;28;20456;-64
2023/06/02 06:37:11;;;;;;;34.07;32.23;;;;;;;;;;5041270;28;20029;-66
2023/06/02 06:39:37;;;;;;;36.03;34.07;;;;;;;;;;5022324;28;20315;-65
2023/06/02 06:42:03;;;;;;;31.03;29.40;;;;;;;;;;5055824;28;20064;-65
2023/06/02 06:44:41;;;;;;;37.47;35.33;;;;;;;;;;5022880;28;20515;-64
2023/06/02 06:47:06;;;;;;;34.97;33.10;;;;;;;;;;5039972;28;20460;-66
2023/06/02 06:49:33;;;;;;;34.03;32.20;;;;;;;;;;5040278;28;20048;-64
2023/06/02 06:51:58;;;;;;;35.23;33.37;;;;;;;;;;5041035;28;20483;-65
2023/06/02 06:54:24;;;;;;;35.33;33.23;;;;;;;;;;5022976;28;20057;-65
2023/06/02 06:56:49;;;;;;;36.20;34.20;;;;;;;;;;5045654;28;20043;-66
2023/06/02 06:59:15;;;;;;;35.13;33.27;;;;;;;;;;5044176;28;20036;-65
2023/06/02 07:01:40;;;;;;;37.57;35.60;;;;;;;;;;5045449;28;20499;-64
2023/06/02 07:04:06;;;;;;;36.10;34.17;;;;;;;;;;5045814;28;20056;-64
2023/06/02 07:06:32;;;;;;;37.00;35.00;;;;;;;;;;5047593;28;20140;-64
2023/06/02 07:08:57;;;;;;;34.13;32.37;;;;;;;;;;5044964;28;20088;-64
2023/06/02 07:11:22;;;;;;;36.67;34.87;;;;;;;;;;5045529;28;20172;-64
2023/06/02 07:13:48;;;;;;;35.37;33.47;;;;;;;;;;5043949;28;20434;-64
2023/06/02 07:16:13;;;;;;;34.93;33.03;;;;;;;;;;5044293;28;20049;-64
2023/06/02 07:18:39;;;;;;;38.63;36.63;;;;;;;;;;5044235;28;20049;-65
2023/06/02 07:21:04;;;;;;;38.30;36.23;;;;;;;;;;5038743;28;20076;-67
2023/06/02 07:23:30;;;;;;;44.60;42.00;;;;;;;;;;5037274;28;20041;-65
2023/06/02 07:25:55;;;;;;;36.00;34.00;;;;;;;;;;5041178;28;20549;-66
2023/06/02 07:28:21;;;;;;;35.27;33.43;;;;;;;;;;5043831;28;20519;-66
2023/06/02 07:30:47;;;;;;;38.63;36.60;;;;;;;;;;5015482;28;20447;-65
2023/06/02 07:33:14;;;;;;;44.73;42.20;;;;;;;;;;5043688;28;20029;-67
2023/06/02 07:35:39;;;;;;;39.33;37.17;;;;;;;;;;5043720;28;20037;-66
2023/06/02 07:38:04;;;;;;;55.97;53.33;;;;;;;;;;5042756;28;20155;-66
2023/06/02 07:40:30;;;;;;;36.73;34.80;;;;;;;;;;5043460;28;20589;-66
2023/06/02 07:42:55;;;;;;;38.03;36.00;;;;;;;;;;5023176;28;20245;-67
2023/06/02 07:45:20;;;;;;;36.03;34.23;;;;;;;;;;5043059;28;20044;-68
2023/06/02 07:47:46;;;;;;;41.00;38.93;;;;;;;;;;5043680;28;20083;-68
2023/06/02 07:50:12;;;;;;;37.93;35.93;;;;;;;;;;5022762;28;20033;-67
2023/06/02 07:52:37;;;;;;;61.87;59.10;;;;;;;;;;5024524;28;20128;-66
2023/06/02 07:55:03;;;;;;;66.57;63.53;;;;;;;;;;5043925;28;20584;-67
2023/06/02 07:57:29;;;;;;;37.77;35.70;;;;;;;;;;5043882;28;20147;-67
2023/06/02 07:59:54;;;;;;;38.63;36.57;;;;;;;;;;5044497;28;20041;-67
2023/06/02 08:02:20;;;;;;;43.83;41.33;;;;;;;;;;5036720;28;20130;-67
2023/06/02 08:04:45;;;;;;;61.43;58.57;;;;;;;;;;5040343;28;20048;-67
2023/06/02 08:07:11;;;;;;;51.40;48.73;;;;;;;;;;5042326;28;20024;-64
2023/06/02 08:09:37;;;;;;;74.40;71.27;;;;;;;;;;5043520;28;20049;-66
2023/06/02 08:12:02;;;;;;;34.33;32.53;;;;;;;;;;5041576;28;20361;-65
2023/06/02 08:14:29;;;;;;;43.53;41.23;;;;;;;;;;5014815;28;20091;-66
2023/06/02 08:16:55;;;;;;;45.73;43.63;;;;;;;;;;5016533;28;20512;-65
2023/06/02 08:19:23;;;;;;;52.77;50.20;;;;;;;;;;5042456;28;20040;-64
2023/06/02 08:21:49;;;;;;;39.60;37.67;;;;;;;;;;5040902;28;20021;-65
2023/06/02 08:24:15;;;;;;;35.23;33.33;;;;;;;;;;5042880;28;20020;-65
2023/06/02 08:26:41;;;;;;;36.67;34.77;;;;;;;;;;5043410;28;20037;-64
2023/06/02 08:29:08;;;;;;;39.00;36.97;;;;;;;;;;5042731;28;20021;-64
2023/06/02 08:31:34;;;;;;;38.73;36.80;;;;;;;;;;5040787;28;20426;-64
2023/06/02 08:34:00;;;;;;;78.87;75.53;;;;;;;;;;5007301;28;20127;-67
2023/06/02 08:36:26;;;;;;;41.33;39.23;;;;;;;;;;5042246;28;20511;-67
2023/06/02 08:38:52;;;;;;;41.33;39.10;;;;;;;;;;5042724;28;20615;-68
2023/06/02 08:41:18;;;;;;;41.73;39.50;;;;;;;;;;5041021;28;20036;-65
2023/06/02 08:43:44;;;;;;;42.40;40.07;;;;;;;;;;5041845;28;20460;-64
2023/06/02 08:46:12;;;;;;;40.47;38.40;;;;;;;;;;5043038;28;20167;-64
2023/06/02 08:48:39;;;;;;;45.50;43.23;;;;;;;;;;5041751;28;20032;-62
2023/06/02 08:51:07;;;;;;;49.80;47.27;;;;;;;;;;5040336;28;20317;-63
2023/06/02 08:53:33;;;;;;;41.50;39.40;;;;;;;;;;5040186;28;20037;-64
2023/06/02 08:55:58;;;;;;;41.27;39.17;;;;;;;;;;5040539;28;20037;-64
2023/06/02 08:58:26;;;;;;;43.33;41.13;;;;;;;;;;5042876;28;20067;-63
2023/06/02 09:00:51;;;;;;;46.37;43.97;;;;;;;;;;5042220;28;20089;-63
2023/06/02 09:03:17;;;;;;;41.63;39.63;;;;;;;;;;5041363;28;20047;-63
2023/06/02 09:05:43;;;;;;;43.17;41.07;;;;;;;;;;5024907;28;20040;-64
2023/06/02 09:08:12;;;;;;;45.37;43.13;;;;;;;;;;5041844;28;20167;-64
2023/06/02 09:10:41;;;;;;;48.10;45.57;;;;;;;;;;5042671;28;20240;-63
2023/06/02 09:13:08;;;;;;;50.77;48.10;;;;;;;;;;5041825;28;20037;-62
2023/06/02 09:15:35;;;;;;;49.23;46.70;;;;;;;;;;5042384;28;20040;-63
2023/06/02 09:18:11;;;;;;;51.43;49.03;;;;;;;;;;5023175;28;20509;-62
2023/06/02 09:20:38;;;;;;;42.27;40.07;;;;;;;;;;5042316;28;20071;-63
2023/06/02 09:23:04;;;;;;;48.33;45.67;;;;;;;;;;5041055;28;20028;-64
2023/06/02 09:25:30;;;;;;;51.27;48.63;;;;;;;;;;5038188;28;20041;-64
2023/06/02 09:27:56;;;;;;;52.83;50.03;;;;;;;;;;5036871;28;20058;-64
2023/06/02 09:30:22;;;;;;;45.43;43.03;;;;;;;;;;5040952;28;20169;-64
2023/06/02 09:32:55;;;;;;;46.13;43.80;;;;;;;;;;5042234;28;20049;-64
2023/06/02 09:35:37;;;;;;;45.90;43.57;;;;;;;;;;5023536;28;20051;-66
2023/06/02 09:38:05;;;;;;;47.10;44.63;;;;;;;;;;5040415;28;20393;-63
2023/06/02 09:40:33;;;;;;;46.47;44.13;;;;;;;;;;5042036;28;20064;-66
2023/06/02 09:43:00;;;;;;;47.17;44.77;;;;;;;;;;5038568;28;20029;-65
2023/06/02 09:45:25;;;;;;;48.43;46.17;;;;;;;;;;5039658;28;20064;-66
2023/06/02 09:47:51;;;;;;;42.27;40.23;;;;;;;;;;5042162;28;20064;-66
2023/06/02 09:50:38;;;;;;;47.87;45.47;;;;;;;;;;5046179;28;20043;-62
2023/06/02 09:53:05;;;;;;;58.03;55.13;;;;;;;;;;5046340;28;20104;-73
2023/06/02 09:55:31;;;;;;;41.10;39.10;;;;;;;;;;5047764;28;20041;-71
2023/06/02 09:57:57;;;;;;;50.93;48.17;;;;;;;;;;5042410;28;20017;-69
2023/06/02 10:00:22;;;;;;;45.20;43.00;;;;;;;;;;5044542;28;20458;-73
2023/06/02 10:02:48;;;;;;;51.27;48.57;;;;;;;;;;5047504;28;20036;-74
2023/06/02 10:05:15;;;;;;;44.93;42.53;;;;;;;;;;5044005;28;20045;-73
2023/06/02 10:08:02;;;;;;;43.93;41.63;;;;;;;;;;5044057;28;20107;-71
2023/06/02 10:10:38;;;;;;;43.57;41.30;;;;;;;;;;5043231;28;20029;-71
2023/06/02 10:13:14;;;;;;;40.77;38.77;;;;;;;;;;5043566;28;20075;-69
2023/06/02 10:15:42;;;;;;;49.40;47.00;;;;;;;;;;5042149;28;20124;-69
2023/06/02 10:18:24;;;;;;;43.07;40.93;;;;;;;;;;5041652;28;20037;-68
2023/06/02 10:21:08;;;;;;;44.27;42.03;;;;;;;;;;5041070;28;20110;-65
2023/06/02 10:23:45;;;;;;;64.60;60.58;;;;;;;;;;5041608;28;20029;-65
2023/06/02 10:26:33;;;;;;;54.83;52.23;;;;;;;;;;5041813;28;20129;-63
2023/06/02 10:29:00;;;;;;;41.47;39.33;;;;;;;;;;5041747;28;20114;-67
2023/06/02 10:31:31;;;;;;;51.37;48.57;;;;;;;;;;5041616;28;20395;-65
2023/06/02 10:33:59;;;;;;;61.37;56.07;;;;;;;;;;5042594;28;20033;-64
2023/06/02 10:36:25;;;;;;;47.27;45.03;;;;;;;;;;5043273;28;20537;-69
2023/06/02 10:38:50;;;;;;;52.03;49.60;;;;;;;;;;5024563;28;20154;-62
2023/06/02 10:41:21;;;;;;;47.07;44.70;;;;;;;;;;5043928;28;20470;-65
2023/06/02 10:44:05;;;;;;;49.03;46.73;;;;;;;;;;5041419;28;20037;-64
2023/06/02 10:46:31;;;;;;;46.97;44.70;;;;;;;;;;5041571;28;20048;-65
2023/06/02 10:48:56;;;;;;;43.70;41.40;;;;;;;;;;5040117;28;20041;-64
2023/06/02 10:51:22;;;;;;;42.43;40.43;;;;;;;;;;5039045;28;20080;-64
2023/06/02 10:54:08;;;;;;;46.97;44.77;;;;;;;;;;5040622;28;20049;-65
2023/06/02 10:56:38;;;;;;;44.17;41.90;;;;;;;;;;5028668;28;20554;-64
2023/06/02 10:59:04;;;;;;;41.90;39.83;;;;;;;;;;5039052;28;20384;-64
2023/06/02 11:01:46;;;;;;;48.53;46.10;;;;;;;;;;5039031;28;20135;-64
2023/06/02 11:04:31;;;;;;;46.80;44.33;;;;;;;;;;5039958;28;20044;-64
2023/06/02 11:07:23;;;;;;;53.83;51.20;;;;;;;;;;5041003;28;20045;-65
2023/06/02 11:09:50;;;;;;;48.67;45.83;;;;;;;;;;5019865;28;20383;-64
2023/06/02 11:12:16;;;;;;;47.53;44.90;;;;;;;;;;5021126;28;20192;-65
2023/06/02 11:15:00;;;;;;;49.20;46.27;;;;;;;;;;5025930;28;20128;-64
2023/06/02 11:17:30;;;;;;;51.10;48.40;;;;;;;;;;5020477;28;20064;-64
2023/06/02 11:19:57;;;;;;;48.60;46.07;;;;;;;;;;5018597;28;20074;-65
2023/06/02 11:22:22;;;;;;;50.37;47.67;;;;;;;;;;5020268;28;20037;-63
2023/06/02 11:24:49;;;;;;;44.07;41.93;;;;;;;;;;5021505;28;20064;-64
2023/06/02 11:27:14;;;;;;;43.27;41.00;;;;;;;;;;5022237;28;20036;-65
2023/06/02 11:29:40;;;;;;;45.50;42.97;;;;;;;;;;5020620;28;20026;-66
2023/06/02 11:32:06;;;;;;;40.87;38.83;;;;;;;;;;5019299;28;20041;-65
2023/06/02 11:34:31;;;;;;;45.53;43.03;;;;;;;;;;5020179;28;20385;-64
2023/06/02 11:37:10;;;;;;;45.73;43.37;;;;;;;;;;5020409;28;20108;-65
2023/06/02 11:39:48;;;;;;;43.63;41.40;;;;;;;;;;5019569;28;20099;-64
2023/06/02 11:42:13;;;;;;;42.50;40.40;;;;;;;;;;5023177;28;20152;-65
2023/06/02 11:44:48;;;;;;;41.70;39.67;;;;;;;;;;5024666;28;20075;-65
2023/06/02 11:47:18;;;;;;;42.40;40.23;;;;;;;;;;5025034;28;20527;-64
2023/06/02 11:49:43;;;;;;;48.23;45.87;;;;;;;;;;5021388;28;20075;-65
2023/06/02 11:52:09;;;;;;;56.23;53.57;;;;;;;;;;5024779;28;20519;-64
2023/06/02 11:54:47;;;;;;;49.30;46.80;;;;;;;;;;5024246;28;20100;-65
2023/06/02 11:57:13;;;;;;;43.50;41.17;;;;;;;;;;5024882;28;20037;-64
2023/06/02 11:59:39;;;;;;;45.80;43.37;;;;;;;;;;5022804;28;20044;-65
2023/06/02 12:02:18;;;;;;;41.33;39.23;;;;;;;;;;5022935;28;20492;-64
2023/06/02 12:04:44;;;;;;;41.77;39.60;;;;;;;;;;5023531;28;20265;-65
2023/06/02 12:07:09;;;;;;;49.07;46.23;;;;;;;;;;5022406;28;20033;-64
2023/06/02 12:09:35;;;;;;;43.87;41.63;;;;;;;;;;5041809;28;20466;-64
2023/06/02 12:12:06;;;;;;;55.80;53.03;;;;;;;;;;5042867;28;20049;-65
2023/06/02 12:14:37;;;;;;;49.20;46.57;;;;;;;;;;5042240;28;20041;-65
2023/06/02 12:17:02;;;;;;;45.63;43.20;;;;;;;;;;5042151;28;21029;-66
2023/06/02 12:19:28;;;;;;;47.13;44.70;;;;;;;;;;5042815;28;20033;-65
2023/06/02 12:22:05;;;;;;;45.90;43.47;;;;;;;;;;5043171;28;20033;-64
2023/06/02 12:24:37;;;;;;;44.63;42.27;;;;;;;;;;5042478;28;20765;-64
2023/06/02 12:27:03;;;;;;;42.47;40.23;;;;;;;;;;5043599;28;20463;-64
2023/06/02 12:29:29;;;;;;;49.37;46.87;;;;;;;;;;5023561;28;20043;-64
2023/06/02 12:31:58;;;;;;;47.13;44.73;;;;;;;;;;5043556;28;20029;-64
2023/06/02 12:34:23;;;;;;;48.80;46.30;;;;;;;;;;5042743;28;20045;-64
2023/06/02 12:36:49;;;;;;;47.50;44.97;;;;;;;;;;5043490;28;20460;-65
2023/06/02 12:39:15;;;;;;;48.43;45.87;;;;;;;;;;5042575;28;20053;-64
2023/06/02 12:41:40;;;;;;;53.97;51.07;;;;;;;;;;5042985;28;20132;-64
2023/06/02 12:44:06;;;;;;;52.40;49.70;;;;;;;;;;5043027;28;20017;-65
2023/06/02 12:46:31;;;;;;;52.50;49.63;;;;;;;;;;5042413;28;20665;-64
2023/06/02 12:49:00;;;;;;;45.93;43.43;;;;;;;;;;5043893;28;20032;-65
2023/06/02 12:51:25;;;;;;;55.30;52.53;;;;;;;;;;5042581;28;20513;-65
2023/06/02 12:53:51;;;;;;;53.83;51.17;;;;;;;;;;4999105;28;20438;-64
2023/06/02 12:56:16;;;;;;;46.97;44.63;;;;;;;;;;5042565;28;20025;-65
2023/06/02 12:58:42;;;;;;;45.03;42.90;;;;;;;;;;5041956;28;20039;-64
2023/06/02 13:01:07;;;;;;;45.83;43.63;;;;;;;;;;5042692;28;20147;-64
2023/06/02 13:03:33;;;;;;;63.57;60.53;;;;;;;;;;5041869;28;20033;-64
2023/06/02 13:06:03;;;;;;;50.57;48.00;;;;;;;;;;5039490;28;20044;-64
2023/06/02 13:08:29;;;;;;;54.37;51.90;;;;;;;;;;5041873;28;20061;-64
2023/06/02 13:10:55;;;;;;;45.63;43.43;;;;;;;;;;5042788;28;20155;-64
2023/06/02 13:13:21;;;;;;;47.43;44.97;;;;;;;;;;5041901;28;20395;-63
2023/06/02 13:15:47;;;;;;;52.93;50.17;;;;;;;;;;5014749;28;20477;-65
2023/06/02 13:18:13;;;;;;;44.97;42.83;;;;;;;;;;5042854;28;20041;-65
2023/06/02 13:20:40;;;;;;;49.87;47.37;;;;;;;;;;5042906;28;20110;-65
2023/06/02 13:23:05;;;;;;;48.43;45.80;;;;;;;;;;5042562;28;20483;-65
2023/06/02 13:25:32;;;;;;;43.97;41.77;;;;;;;;;;5043730;28;20186;-65
2023/06/02 13:27:58;;;;;;;51.00;48.50;;;;;;;;;;5042916;28;20032;-65
2023/06/02 13:30:23;;;;;;;44.83;42.67;;;;;;;;;;5042612;28;20037;-65
2023/06/02 13:32:49;;;;;;;48.17;45.57;;;;;;;;;;5043777;28;20465;-65
2023/06/02 13:35:15;;;;;;;48.17;45.53;;;;;;;;;;5042484;28;20513;-65
2023/06/02 13:37:41;;;;;;;48.83;46.23;;;;;;;;;;5023129;28;20049;-65
2023/06/02 13:40:07;;;;;;;52.23;49.73;;;;;;;;;;5023696;28;20593;-64
2023/06/02 13:42:32;;;;;;;45.93;43.67;;;;;;;;;;5043343;28;20024;-64
2023/06/02 13:44:58;;;;;;;47.80;45.50;;;;;;;;;;5040901;28;20047;-65
2023/06/02 13:47:23;;;;;;;50.47;47.93;;;;;;;;;;5041543;28;20068;-65
2023/06/02 13:49:49;;;;;;;51.23;48.80;;;;;;;;;;5041765;28;20373;-65
2023/06/02 13:52:15;;;;;;;48.73;46.20;;;;;;;;;;5041680;28;20589;-64
2023/06/02 13:54:41;;;;;;;46.97;44.57;;;;;;;;;;5041215;28;20041;-64
2023/06/02 13:57:08;;;;;;;46.23;44.00;;;;;;;;;;5040912;28;20471;-65
2023/06/02 13:59:33;;;;;;;49.47;47.07;;;;;;;;;;5040943;28;20034;-65
2023/06/02 14:01:59;;;;;;;59.03;56.00;;;;;;;;;;5041491;28;20025;-65
2023/06/02 14:04:25;;;;;;;65.77;62.60;;;;;;;;;;5020482;28;20032;-64
2023/06/02 14:06:51;;;;;;;50.80;48.30;;;;;;;;;;5040846;28;20045;-65
2023/06/02 14:09:17;;;;;;;57.27;54.00;;;;;;;;;;5041577;28;20064;-65
2023/06/02 14:11:43;;;;;;;53.93;51.33;;;;;;;;;;5041158;28;20033;-65
2023/06/02 14:14:10;;;;;;;52.87;50.23;;;;;;;;;;5013257;28;20411;-64
2023/06/02 14:16:36;;;;;;;52.20;49.40;;;;;;;;;;5039457;28;20466;-64